Time;durP1;ratioP1;P1;durP2;ratioP2;P2;SDS_P1;SDS_P2;PMS_P1;PMS_P2;Temp;Humidity;BMP_temperature;BMP_pressure;BME280_temperature;BME280_humidity;BME280_pressure;Samples;Min_cycle;Max_cycle;Signal;HPM_P1;HPM_P2
2022/08/10 00:02:05;;;;;;;;;;;;;;;24.28;76.36;97168.61;612607;229;62738;-66
2022/08/10 00:04:32;;;;;;;;;;;;;;;24.29;76.36;97164.86;615188;230;64380;-66
2022/08/10 00:07:00;;;;;;;;;;;;;;;24.28;76.42;97164.06;615132;230;67268;-66
2022/08/10 00:09:27;;;;;;;;;;;;;;;24.28;76.43;97163.24;615178;230;64872;-66
2022/08/10 00:11:55;;;;;;;;;;;;;;;24.28;76.46;97156.01;615166;230;66911;-66
2022/08/10 00:14:23;;;;;;;;;;;;;;;24.29;76.53;97143.37;615175;230;66718;-66
2022/08/10 00:16:50;;;;;;;;;;;;;;;24.29;76.58;97146.06;615166;229;64954;-66
2022/08/10 00:19:18;;;;;;;;;;;;;;;24.28;76.55;97152.50;615179;230;66836;-65
2022/08/10 00:21:46;;;;;;;;;;;;;;;24.28;76.54;97141.76;615142;230;67997;-66
2022/08/10 00:24:14;;;;;;;;;;;;;;;24.29;76.49;97143.37;615200;230;63670;-66
2022/08/10 00:26:41;;;;;;;;;;;;;;;24.29;76.47;97138.00;615123;230;64731;-66
2022/08/10 00:29:09;;;;;;;;;;;;;;;24.28;76.42;97125.64;615129;230;66992;-66
2022/08/10 00:31:37;;;;;;;;;;;;;;;24.28;76.48;97129.16;615120;230;64856;-67
2022/08/10 00:34:04;;;;;;;;;;;;;;;24.28;76.50;97128.33;615152;230;64968;-66
2022/08/10 00:36:32;;;;;;;;;;;;;;;24.28;76.47;97128.33;615196;230;64886;-67
2022/08/10 00:38:59;;;;;;;;;;;;;;;24.28;76.51;97131.84;615173;230;62639;-66
2022/08/10 00:41:27;;;;;;;;;;;;;;;24.28;76.52;97136.39;615129;230;67180;-67
2022/08/10 00:43:54;;;;;;;;;;;;;;;24.28;76.54;97136.39;615148;230;66957;-66
2022/08/10 00:46:22;;;;;;;;;;;;;;;24.28;76.56;97134.52;615135;230;64959;-66
2022/08/10 00:48:49;;;;;;;;;;;;;;;24.28;76.63;97131.02;615155;230;67053;-66
2022/08/10 00:51:17;;;;;;;;;;;;;;;24.28;76.63;97131.84;615148;230;67219;-66
2022/08/10 00:53:44;;;;;;;;;;;;;;;24.27;76.65;97121.38;615132;230;64883;-66
2022/08/10 00:56:12;;;;;;;;;;;;;;;24.28;76.71;97125.64;615059;230;67471;-66
2022/08/10 00:58:40;;;;;;;;;;;;;;;24.28;76.73;97125.64;615145;230;66951;-66
2022/08/10 01:01:07;;;;;;;;;;;;;;;24.27;76.75;97124.84;615189;230;62658;-66
2022/08/10 01:03:35;;;;;;;;;;;;;;;24.28;76.81;97125.64;615196;230;64842;-66
2022/08/10 01:06:07;;;;;;;;;;;;;;;24.27;76.83;97124.84;615128;230;64894;-66
2022/08/10 01:08:42;;;;;;;;;;;;;;;24.27;76.82;97126.74;615117;230;64918;-66
2022/08/10 01:11:18;;;;;;;;;;;;;;;24.27;76.80;97130.22;615149;230;67241;-68
2022/08/10 01:13:49;;;;;;;;;;;;;;;24.27;76.80;97135.59;614884;229;66722;-67
2022/08/10 01:16:27;;;;;;;;;;;;;;;24.27;76.77;97145.55;615148;229;65050;-66
2022/08/10 01:18:56;;;;;;;;;;;;;;;24.27;76.78;97151.70;615131;229;67151;-67
2022/08/10 01:21:25;;;;;;;;;;;;;;;24.27;76.82;97143.65;615047;229;67283;-66
2022/08/10 01:24:00;;;;;;;;;;;;;;;24.26;76.79;97147.44;615136;230;64846;-67
2022/08/10 01:26:38;;;;;;;;;;;;;;;24.27;76.79;97145.55;615022;229;67343;-66
2022/08/10 01:29:24;;;;;;;;;;;;;;;24.27;76.81;97140.17;615105;230;67047;-66
2022/08/10 01:31:53;;;;;;;;;;;;;;;24.26;76.88;97142.06;615148;230;65362;-66
2022/08/10 01:34:22;;;;;;;;;;;;;;;24.26;76.90;97138.59;615160;230;64778;-66
2022/08/10 01:36:51;;;;;;;;;;;;;;;24.26;76.88;97139.38;615169;230;64763;-66
2022/08/10 01:39:22;;;;;;;;;;;;;;;24.25;76.88;97145.02;615128;230;62836;-66
2022/08/10 01:41:51;;;;;;;;;;;;;;;24.25;76.88;97137.77;615139;230;67500;-66
2022/08/10 01:44:20;;;;;;;;;;;;;;;24.25;76.92;97137.77;615102;229;67005;-67
2022/08/10 01:46:49;;;;;;;;;;;;;;;24.26;76.88;97138.59;614549;229;64853;-67
2022/08/10 01:49:18;;;;;;;;;;;;;;;24.26;76.93;97139.38;615143;229;67210;-67
2022/08/10 01:51:49;;;;;;;;;;;;;;;24.25;76.96;97142.34;615136;230;64667;-66
2022/08/10 01:54:18;;;;;;;;;;;;;;;24.25;76.97;97147.70;615159;230;62678;-66
2022/08/10 01:56:48;;;;;;;;;;;;;;;24.26;76.99;97150.12;615159;230;67203;-66
2022/08/10 01:59:17;;;;;;;;;;;;;;;24.25;77.00;97145.81;615115;230;66908;-66
2022/08/10 02:01:48;;;;;;;;;;;;;;;24.26;76.92;97152.02;615162;229;70970;-66
2022/08/10 02:04:17;;;;;;;;;;;;;;;24.25;76.96;97147.70;615155;230;64999;-66
2022/08/10 02:06:48;;;;;;;;;;;;;;;24.25;76.90;97148.50;615127;230;64857;-67
2022/08/10 02:09:20;;;;;;;;;;;;;;;24.25;76.95;97147.70;615057;229;65680;-66
2022/08/10 02:11:50;;;;;;;;;;;;;;;24.25;77.06;97153.08;614890;229;67042;-66
2022/08/10 02:14:18;;;;;;;;;;;;;;;24.26;77.14;97149.33;615124;230;67046;-66
2022/08/10 02:16:47;;;;;;;;;;;;;;;24.24;77.16;97141.55;616832;229;65194;-66
2022/08/10 02:19:16;;;;;;;;;;;;;;;24.25;77.24;97150.39;619646;229;67704;-66
2022/08/10 02:21:45;;;;;;;;;;;;;;;24.24;77.27;97136.17;619624;229;67920;-66
2022/08/10 02:24:14;;;;;;;;;;;;;;;24.25;77.30;97155.77;619631;229;65122;-66
2022/08/10 02:26:42;;;;;;;;;;;;;;;24.25;77.33;97150.39;619664;229;67209;-66
2022/08/10 02:29:10;;;;;;;;;;;;;;;24.25;77.34;97153.08;619692;229;66682;-66
2022/08/10 02:31:39;;;;;;;;;;;;;;;24.24;77.35;97149.60;619634;229;62747;-67
2022/08/10 02:34:08;;;;;;;;;;;;;;;24.25;77.36;97155.77;619653;229;67396;-67
2022/08/10 02:36:37;;;;;;;;;;;;;;;24.24;77.34;97152.29;619594;229;67352;-66
2022/08/10 02:39:05;;;;;;;;;;;;;;;24.24;77.37;97152.29;619612;229;64951;-66
2022/08/10 02:41:51;;;;;;;;;;;;;;;24.24;77.40;97154.97;619693;229;65126;-66
2022/08/10 02:44:23;;;;;;;;;;;;;;;24.24;77.37;97151.49;619677;229;64751;-66
2022/08/10 02:46:52;;;;;;;;;;;;;;;24.24;77.35;97156.86;619640;229;65209;-66
2022/08/10 02:49:23;;;;;;;;;;;;;;;24.25;77.39;97161.14;619564;229;64949;-66
2022/08/10 02:52:01;;;;;;;;;;;;;;;24.25;77.36;97153.08;619571;228;66916;-66
2022/08/10 02:54:30;;;;;;;;;;;;;;;24.24;77.42;97157.66;619190;229;64980;-66
2022/08/10 02:57:02;;;;;;;;;;;;;;;24.23;77.43;97152.59;619604;229;66673;-66
2022/08/10 02:59:34;;;;;;;;;;;;;;;24.25;77.34;97158.45;619675;229;65516;-66
2022/08/10 03:02:03;;;;;;;;;;;;;;;24.24;77.34;97163.03;619494;229;62997;-66
2022/08/10 03:04:35;;;;;;;;;;;;;;;24.25;77.40;97169.19;619623;229;65073;-66
2022/08/10 03:07:04;;;;;;;;;;;;;;;24.24;77.37;97167.61;619345;229;64816;-66
2022/08/10 03:09:33;;;;;;;;;;;;;;;24.24;77.35;97175.66;619625;229;65276;-65
2022/08/10 03:12:01;;;;;;;;;;;;;;;24.23;77.45;97177.55;619638;229;64921;-65
2022/08/10 03:14:29;;;;;;;;;;;;;;;24.24;77.44;97175.66;619646;229;66998;-65
2022/08/10 03:16:59;;;;;;;;;;;;;;;24.23;77.46;97185.61;617572;229;64855;-65
2022/08/10 03:19:27;;;;;;;;;;;;;;;24.23;77.55;97184.81;615153;230;64925;-65
2022/08/10 03:21:55;;;;;;;;;;;;;;;24.23;77.53;97188.30;615129;230;65707;-65
2022/08/10 03:24:24;;;;;;;;;;;;;;;24.23;77.59;97185.61;615147;230;65095;-65
2022/08/10 03:26:53;;;;;;;;;;;;;;;24.23;77.62;97188.30;615192;230;65095;-66
2022/08/10 03:29:22;;;;;;;;;;;;;;;24.23;77.71;97185.61;615145;230;64767;-67
2022/08/10 03:31:50;;;;;;;;;;;;;;;24.22;77.70;97188.57;615135;230;62699;-66
2022/08/10 03:34:19;;;;;;;;;;;;;;;24.21;77.71;97185.09;615163;230;66931;-66
2022/08/10 03:36:46;;;;;;;;;;;;;;;24.21;77.67;97182.41;615139;230;66901;-66
2022/08/10 03:39:14;;;;;;;;;;;;;;;24.21;77.75;97184.30;615196;230;62700;-66
2022/08/10 03:41:43;;;;;;;;;;;;;;;24.23;77.72;97192.88;615170;230;64864;-66
2022/08/10 03:44:12;;;;;;;;;;;;;;;24.23;77.71;97198.25;614486;230;64638;-67
2022/08/10 03:46:41;;;;;;;;;;;;;;;24.22;77.67;97202.80;615151;230;65143;-66
2022/08/10 03:49:09;;;;;;;;;;;;;;;24.21;77.70;97203.09;615152;230;65078;-66
2022/08/10 03:51:37;;;;;;;;;;;;;;;24.24;77.64;97210.58;615159;230;67365;-66
2022/08/10 03:54:05;;;;;;;;;;;;;;;24.23;77.67;97214.36;615154;230;62734;-66
2022/08/10 03:56:34;;;;;;;;;;;;;;;24.21;77.65;97211.95;615151;230;64859;-66
2022/08/10 03:59:01;;;;;;;;;;;;;;;24.21;77.66;97211.95;615110;230;66905;-66
2022/08/10 04:01:31;;;;;;;;;;;;;;;24.21;77.68;97221.89;615148;230;64871;-66
2022/08/10 04:03:58;;;;;;;;;;;;;;;24.21;77.68;97224.58;615132;230;67340;-66
2022/08/10 04:06:27;;;;;;;;;;;;;;;24.22;77.67;97228.85;615214;230;64538;-67
2022/08/10 04:08:54;;;;;;;;;;;;;;;24.21;77.66;97228.06;615180;230;65119;-67
2022/08/10 04:11:22;;;;;;;;;;;;;;;24.21;77.67;97235.32;615152;230;64403;-67
2022/08/10 04:13:49;;;;;;;;;;;;;;;24.21;77.68;97249.54;615170;230;66649;-66
2022/08/10 04:16:17;;;;;;;;;;;;;;;24.21;77.66;97238.80;615911;229;64859;-66
2022/08/10 04:18:44;;;;;;;;;;;;;;;24.21;77.73;97240.69;619736;229;64908;-66
2022/08/10 04:21:13;;;;;;;;;;;;;;;24.21;77.75;97249.54;619689;229;67224;-66
2022/08/10 04:23:42;;;;;;;;;;;;;;;24.21;77.76;97252.22;619576;229;64885;-66
2022/08/10 04:26:11;;;;;;;;;;;;;;;24.21;77.76;97254.91;619660;229;66815;-66
2022/08/10 04:28:39;;;;;;;;;;;;;;;24.21;77.75;97251.43;619682;229;66674;-66
2022/08/10 04:31:08;;;;;;;;;;;;;;;24.21;77.81;97254.91;619689;229;65393;-66
2022/08/10 04:33:37;;;;;;;;;;;;;;;24.21;77.84;97254.91;619630;229;65102;-66
2022/08/10 04:36:05;;;;;;;;;;;;;;;24.20;77.87;97261.38;619626;229;67077;-67
2022/08/10 04:38:34;;;;;;;;;;;;;;;24.21;77.90;97254.11;619619;229;65072;-67
2022/08/10 04:41:02;;;;;;;;;;;;;;;24.19;77.94;97246.33;619614;229;68022;-66
2022/08/10 04:43:29;;;;;;;;;;;;;;;24.20;77.96;97247.95;619706;229;67043;-66
2022/08/10 04:45:57;;;;;;;;;;;;;;;24.20;77.96;97249.81;619666;229;62676;-66
2022/08/10 04:48:24;;;;;;;;;;;;;;;24.20;77.98;97242.58;619628;229;67169;-67
2022/08/10 04:50:52;;;;;;;;;;;;;;;24.20;78.02;97247.13;619653;229;67242;-66
2022/08/10 04:53:20;;;;;;;;;;;;;;;24.20;78.07;97247.13;619615;229;65995;-66
2022/08/10 04:55:47;;;;;;;;;;;;;;;24.19;78.09;97238.28;619623;229;67193;-66
2022/08/10 04:58:15;;;;;;;;;;;;;;;24.20;78.10;97252.50;619714;229;66864;-67
2022/08/10 05:00:42;;;;;;;;;;;;;;;24.19;78.08;97246.33;619549;229;65246;-66
2022/08/10 05:03:10;;;;;;;;;;;;;;;24.20;78.12;97236.39;619619;229;68111;-67
2022/08/10 05:05:37;;;;;;;;;;;;;;;24.19;78.12;97232.91;619599;229;68140;-67
2022/08/10 05:08:05;;;;;;;;;;;;;;;24.19;78.10;97232.91;619660;229;65064;-66
2022/08/10 05:10:34;;;;;;;;;;;;;;;24.19;78.13;97240.17;619573;229;67168;-66
2022/08/10 05:13:02;;;;;;;;;;;;;;;24.19;78.16;97229.43;619605;229;67104;-66
2022/08/10 05:15:30;;;;;;;;;;;;;;;24.19;78.16;97230.22;619636;229;62750;-66
2022/08/10 05:17:58;;;;;;;;;;;;;;;24.19;78.13;97237.48;619591;229;65750;-66
2022/08/10 05:20:25;;;;;;;;;;;;;;;24.19;78.17;97232.91;619650;229;64888;-66
2022/08/10 05:22:54;;;;;;;;;;;;;;;24.19;78.13;97232.91;619615;229;65143;-66
2022/08/10 05:25:22;;;;;;;;;;;;;;;24.19;78.13;97245.54;619646;229;66837;-66
2022/08/10 05:27:49;;;;;;;;;;;;;;;24.19;78.16;97240.17;619643;229;65626;-66
2022/08/10 05:30:18;;;;;;;;;;;;;;;24.19;78.18;97237.48;619609;229;64840;-66
2022/08/10 05:32:46;;;;;;;;;;;;;;;24.19;78.20;97234.80;619571;229;65062;-66
2022/08/10 05:35:13;;;;;;;;;;;;;;;24.18;78.18;97236.69;619702;229;64842;-66
2022/08/10 05:37:42;;;;;;;;;;;;;;;24.19;78.19;97229.43;619629;229;62798;-66
2022/08/10 05:40:12;;;;;;;;;;;;;;;24.18;78.19;97231.32;619617;229;65105;-66
2022/08/10 05:42:40;;;;;;;;;;;;;;;24.18;78.17;97227.84;619644;229;67137;-66
2022/08/10 05:45:12;;;;;;;;;;;;;;;24.18;78.19;97235.89;619526;229;65198;-66
2022/08/10 05:47:41;;;;;;;;;;;;;;;24.19;78.16;97245.54;619637;229;67162;-68
2022/08/10 05:50:10;;;;;;;;;;;;;;;24.18;78.16;97233.21;618870;229;67154;-65
2022/08/10 05:52:38;;;;;;;;;;;;;;;24.18;78.29;97236.69;619619;229;63015;-65
2022/08/10 05:55:07;;;;;;;;;;;;;;;24.18;78.33;97238.58;619533;229;64894;-66
2022/08/10 05:57:35;;;;;;;;;;;;;;;24.18;78.28;97239.38;619333;229;65006;-63
2022/08/10 06:00:05;;;;;;;;;;;;;;;24.18;78.09;97235.89;619350;229;65096;-64
2022/08/10 06:02:37;;;;;;;;;;;;;;;24.17;77.97;97240.44;619536;229;44504;-68
2022/08/10 06:05:13;;;;;;;;;;;;;;;24.16;77.81;97241.53;619283;229;66863;-67
2022/08/10 06:07:43;;;;;;;;;;;;;;;24.16;77.73;97228.11;622576;226;65291;-66
2022/08/10 06:10:12;;;;;;;;;;;;;;;24.15;77.56;97230.00;625675;226;67093;-66
2022/08/10 06:12:40;;;;;;;;;;;;;;;24.15;77.58;97229.21;626634;226;66613;-65
2022/08/10 06:15:09;;;;;;;;;;;;;;;24.13;76.50;97228.69;626702;226;64907;-65
2022/08/10 06:17:38;;;;;;;;;;;;;;;24.14;76.96;97224.91;626696;226;67272;-66
2022/08/10 06:20:07;;;;;;;;;;;;;;;24.13;76.95;97221.42;626718;226;65117;-66
2022/08/10 06:22:34;;;;;;;;;;;;;;;24.15;77.27;97221.16;626668;226;62989;-66
2022/08/10 06:25:03;;;;;;;;;;;;;;;24.14;77.38;97220.36;626702;226;67082;-65
2022/08/10 06:27:32;;;;;;;;;;;;;;;24.15;77.29;97221.16;626692;226;65001;-68
2022/08/10 06:30:00;;;;;;;;;;;;;;;24.15;77.26;97219.27;626728;226;65133;-66
2022/08/10 06:32:29;;;;;;;;;;;;;;;24.14;75.18;97209.63;626716;226;67148;-66
2022/08/10 06:35:01;;;;;;;;;;;;;;;24.15;74.86;97213.09;626574;226;44018;-66
2022/08/10 06:37:31;;;;;;;;;;;;;;;24.14;74.44;97214.99;620140;226;49360;-66
2022/08/10 06:39:59;;;;;;;;;;;;;;;24.14;74.19;97214.16;626660;226;64688;-66
2022/08/10 06:42:28;;;;;;;;;;;;;;;24.13;73.64;97213.38;626667;226;64755;-66
2022/08/10 06:45:04;;;;;;;;;;;;;;;24.13;73.09;97209.89;626583;226;41735;-67
2022/08/10 06:47:42;;;;;;;;;;;;;;;24.13;72.84;97216.05;626682;226;67374;-67
2022/08/10 06:50:17;;;;;;;;;;;;;;;24.13;72.64;97220.63;626669;226;64740;-67
2022/08/10 06:52:46;;;;;;;;;;;;;;;24.12;72.38;97214.47;626691;226;62684;-66
2022/08/10 06:55:14;;;;;;;;;;;;;;;24.13;72.29;97207.20;626599;226;68010;-66
2022/08/10 06:57:42;;;;;;;;;;;;;;;24.12;72.19;97209.09;626794;226;66953;-66
2022/08/10 07:00:13;;;;;;;;;;;;;;;24.11;71.95;97204.80;626652;226;65026;-67
2022/08/10 07:02:44;;;;;;;;;;;;;;;24.12;71.86;97202.94;626747;226;46775;-66
2022/08/10 07:05:13;;;;;;;;;;;;;;;24.12;71.78;97202.94;626699;226;64885;-66
2022/08/10 07:07:42;;;;;;;;;;;;;;;24.12;71.83;97198.36;626626;226;65211;-66
2022/08/10 07:10:09;;;;;;;;;;;;;;;24.13;71.72;97199.95;626503;226;64842;-68
2022/08/10 07:12:38;;;;;;;;;;;;;;;24.13;72.01;97210.69;626610;226;67027;-67
2022/08/10 07:15:08;;;;;;;;;;;;;;;24.13;71.92;97199.95;626538;226;62955;-67
2022/08/10 07:17:36;;;;;;;;;;;;;;;24.13;71.99;97208.00;623077;226;65033;-67
2022/08/10 07:20:05;;;;;;;;;;;;;;;24.14;71.98;97206.11;622127;228;64757;-67
2022/08/10 07:22:35;;;;;;;;;;;;;;;24.14;72.07;97196.20;622045;228;64895;-67
2022/08/10 07:25:03;;;;;;;;;;;;;;;24.14;72.22;97201.56;622147;228;65085;-66
2022/08/10 07:27:31;;;;;;;;;;;;;;;24.14;72.59;97196.20;622114;228;66806;-66
2022/08/10 07:30:00;;;;;;;;;;;;;;;24.16;72.68;97201.27;622018;228;64949;-66
2022/08/10 07:32:27;;;;;;;;;;;;;;;24.16;72.98;97195.89;622109;228;67428;-67
2022/08/10 07:34:56;;;;;;;;;;;;;;;24.16;73.30;97198.58;622063;228;67300;-67
2022/08/10 07:37:24;;;;;;;;;;;;;;;24.15;73.28;97197.78;622117;228;63068;-66
2022/08/10 07:39:53;;;;;;;;;;;;;;;24.17;73.35;97199.37;622092;228;67261;-67
2022/08/10 07:42:21;;;;;;;;;;;;;;;24.16;73.22;97203.95;622132;228;66888;-66
2022/08/10 07:44:49;;;;;;;;;;;;;;;24.17;73.05;97212.80;622020;228;64838;-67
2022/08/10 07:47:18;;;;;;;;;;;;;;;24.15;72.71;97216.58;622090;228;66928;-66
2022/08/10 07:49:47;;;;;;;;;;;;;;;24.17;72.62;97212.80;622119;228;64823;-67
2022/08/10 07:52:15;;;;;;;;;;;;;;;24.15;72.72;97219.27;622082;228;62745;-67
2022/08/10 07:54:44;;;;;;;;;;;;;;;24.17;72.69;97218.16;622078;228;64562;-67
2022/08/10 07:57:16;;;;;;;;;;;;;;;24.17;72.67;97220.85;622134;228;64475;-67
2022/08/10 07:59:45;;;;;;;;;;;;;;;24.17;72.75;97213.59;621572;228;65190;-70
2022/08/10 08:02:18;;;;;;;;;;;;;;;24.17;73.06;97213.59;622147;228;65098;-68
2022/08/10 08:04:46;;;;;;;;;;;;;;;24.18;73.22;97217.89;622077;228;64802;-68
2022/08/10 08:07:14;;;;;;;;;;;;;;;24.18;73.54;97211.73;622128;228;64984;-69
2022/08/10 08:09:42;;;;;;;;;;;;;;;24.19;73.80;97216.00;622126;228;67438;-68
2022/08/10 08:12:10;;;;;;;;;;;;;;;24.18;73.96;97214.41;622079;228;64958;-68
2022/08/10 08:14:40;;;;;;;;;;;;;;;24.19;74.11;97216.80;622107;228;65041;-69
2022/08/10 08:17:08;;;;;;;;;;;;;;;24.18;74.22;97223.27;624602;226;64824;-71
2022/08/10 08:19:36;;;;;;;;;;;;;;;24.18;71.31;97217.89;626638;226;66895;-69
2022/08/10 08:22:04;;;;;;;;;;;;;;;24.21;72.81;97219.20;626780;226;64768;-70
2022/08/10 08:24:33;;;;;;;;;;;;;;;24.22;73.09;97220.80;626673;226;66783;-67
2022/08/10 08:27:01;;;;;;;;;;;;;;;24.21;73.30;97220.00;626710;226;64456;-69
2022/08/10 08:29:30;;;;;;;;;;;;;;;24.23;73.63;97220.52;626751;226;65067;-68
2022/08/10 08:31:58;;;;;;;;;;;;;;;24.21;73.93;97222.69;626743;226;66780;-71
2022/08/10 08:34:26;;;;;;;;;;;;;;;24.24;74.21;97229.38;626727;226;66641;-66
2022/08/10 08:36:55;;;;;;;;;;;;;;;24.25;73.40;97218.33;626752;226;65009;-68
2022/08/10 08:39:23;;;;;;;;;;;;;;;24.28;73.17;97220.46;626745;226;66837;-69
2022/08/10 08:41:57;;;;;;;;;;;;;;;24.30;73.77;97220.95;626703;226;66698;-68
2022/08/10 08:44:32;;;;;;;;;;;;;;;24.31;74.36;97214.52;626455;226;63554;-69
2022/08/10 08:47:01;;;;;;;;;;;;;;;24.31;74.55;97217.20;626463;226;67111;-68
2022/08/10 08:49:31;;;;;;;;;;;;;;;24.33;74.81;97219.58;626605;226;67151;-68
2022/08/10 08:52:02;;;;;;;;;;;;;;;24.33;74.95;97220.38;626732;226;65080;-68
2022/08/10 08:54:34;;;;;;;;;;;;;;;24.34;74.97;97226.57;626399;226;67127;-67
2022/08/10 08:57:09;;;;;;;;;;;;;;;24.34;74.98;97227.36;626513;226;67006;-67
2022/08/10 08:59:38;;;;;;;;;;;;;;;24.35;74.96;97231.64;626412;226;62699;-67
2022/08/10 09:02:08;;;;;;;;;;;;;;;24.35;75.11;97228.16;626088;226;67488;-66
2022/08/10 09:04:48;;;;;;;;;;;;;;;24.36;75.06;97229.75;626732;226;64706;-66
2022/08/10 09:07:17;;;;;;;;;;;;;;;24.36;75.17;97221.69;626674;226;62703;-67
2022/08/10 09:09:52;;;;;;;;;;;;;;;24.36;75.36;97216.31;626440;226;66987;-67
2022/08/10 09:12:24;;;;;;;;;;;;;;;24.37;75.45;97228.68;626657;226;66981;-67
2022/08/10 09:15:06;;;;;;;;;;;;;;;24.37;75.56;97229.47;626641;226;63812;-67
2022/08/10 09:17:41;;;;;;;;;;;;;;;24.38;75.58;97230.27;623374;226;68248;-66
2022/08/10 09:20:16;;;;;;;;;;;;;;;24.38;75.59;97232.95;621562;228;64842;-67
2022/08/10 09:22:48;;;;;;;;;;;;;;;24.38;75.66;97228.38;621988;228;65061;-67
2022/08/10 09:25:20;;;;;;;;;;;;;;;24.37;75.57;97226.78;622001;227;67393;-67
2022/08/10 09:27:49;;;;;;;;;;;;;;;24.39;75.72;97237.25;622080;228;67209;-67
2022/08/10 09:30:24;;;;;;;;;;;;;;;24.39;75.74;97234.57;621461;228;64901;-67
2022/08/10 09:32:54;;;;;;;;;;;;;;;24.41;75.73;97234.27;620073;227;64613;-67
2022/08/10 09:35:30;;;;;;;;;;;;;;;24.41;75.74;97240.43;621793;227;64659;-67
2022/08/10 09:38:08;;;;;;;;;;;;;;;24.41;75.77;97242.33;622035;228;65054;-68
2022/08/10 09:40:38;;;;;;;;;;;;;;;24.40;75.86;97233.47;621956;228;67165;-68
2022/08/10 09:43:19;;;;;;;;;;;;;;;24.41;75.86;97239.64;621906;227;64857;-67
2022/08/10 09:46:01;;;;;;;;;;;;;;;24.41;75.88;97228.89;621827;226;65071;-67
2022/08/10 09:48:42;;;;;;;;;;;;;;;24.41;75.87;97243.12;616979;228;64797;-66
2022/08/10 09:51:11;;;;;;;;;;;;;;;24.42;75.82;97233.99;617640;228;67914;-65
2022/08/10 09:53:41;;;;;;;;;;;;;;;24.42;75.83;97235.85;611835;228;64300;-66
2022/08/10 09:56:19;;;;;;;;;;;;;;;24.42;75.84;97235.85;612717;228;66585;-65
2022/08/10 09:58:51;;;;;;;;;;;;;;;24.42;75.91;97241.23;615158;227;66665;-66
2022/08/10 10:01:40;;;;;;;;;;;;;;;24.42;75.94;97239.36;614660;229;42573;-67
2022/08/10 10:04:09;;;;;;;;;;;;;;;24.42;75.94;97239.36;615073;230;65019;-67
2022/08/10 10:06:38;;;;;;;;;;;;;;;24.43;75.96;97237.47;614923;230;67214;-66
2022/08/10 10:09:08;;;;;;;;;;;;;;;24.43;74.20;97237.47;614701;229;65206;-66
2022/08/10 10:11:50;;;;;;;;;;;;;;;24.42;74.35;97239.36;614902;230;64801;-65
2022/08/10 10:14:19;;;;;;;;;;;;;;;24.40;74.72;97240.73;614921;230;66950;-65
2022/08/10 10:16:48;;;;;;;;;;;;;;;24.38;75.86;97243.70;614969;229;65004;-66
2022/08/10 10:19:23;;;;;;;;;;;;;;;24.35;75.57;97244.27;605319;230;70753;-66
2022/08/10 10:21:55;;;;;;;;;;;;;;;24.34;75.76;97242.69;611476;230;66561;-66
2022/08/10 10:24:33;;;;;;;;;;;;;;;24.33;75.77;97252.61;618582;228;62698;-66
2022/08/10 10:27:06;;;;;;;;;;;;;;;24.31;75.66;97246.75;622032;228;66818;-65
2022/08/10 10:29:37;;;;;;;;;;;;;;;24.30;75.38;97245.12;621726;227;66933;-66
2022/08/10 10:32:16;;;;;;;;;;;;;;;24.30;74.91;97241.64;621979;227;65191;-66
2022/08/10 10:35:02;;;;;;;;;;;;;;;24.29;74.65;97251.59;621945;228;67550;-67
2022/08/10 10:37:30;;;;;;;;;;;;;;;24.28;74.47;97250.01;622130;228;64786;-66
2022/08/10 10:39:58;;;;;;;;;;;;;;;24.28;74.34;97244.64;622173;228;65286;-65
2022/08/10 10:42:33;;;;;;;;;;;;;;;24.28;74.17;97244.64;622052;228;67264;-66
2022/08/10 10:45:20;;;;;;;;;;;;;;;24.28;74.08;97241.13;621963;227;67202;-65
2022/08/10 10:48:08;;;;;;;;;;;;;;;24.28;73.93;97243.81;622101;228;65602;-66
2022/08/10 10:50:40;;;;;;;;;;;;;;;24.27;73.89;97247.59;622062;228;67092;-66
2022/08/10 10:53:09;;;;;;;;;;;;;;;24.27;73.86;97247.59;621985;227;67085;-66
2022/08/10 10:55:38;;;;;;;;;;;;;;;24.27;73.83;97247.59;622040;228;62958;-65
2022/08/10 10:58:24;;;;;;;;;;;;;;;24.26;73.78;97238.74;610768;227;67316;-65
2022/08/10 11:01:05;;;;;;;;;;;;;;;24.27;73.76;97239.53;622095;228;64885;-66
2022/08/10 11:03:49;;;;;;;;;;;;;;;24.26;73.75;97235.27;621956;227;65154;-66
2022/08/10 11:06:24;;;;;;;;;;;;;;;24.27;74.04;97242.22;622047;227;64525;-66
2022/08/10 11:08:54;;;;;;;;;;;;;;;24.26;74.10;97238.74;613026;227;64529;-66
2022/08/10 11:11:23;;;;;;;;;;;;;;;24.27;74.20;97239.53;621956;227;62735;-65
2022/08/10 11:13:52;;;;;;;;;;;;;;;24.26;74.25;97235.27;621995;227;68033;-64
2022/08/10 11:16:30;;;;;;;;;;;;;;;24.26;74.26;97229.89;621928;226;66834;-65
2022/08/10 11:19:14;;;;;;;;;;;;;;;24.26;74.27;97221.84;622041;228;65273;-64
2022/08/10 11:21:49;;;;;;;;;;;;;;;24.26;74.30;97208.41;621976;227;67435;-65
2022/08/10 11:24:22;;;;;;;;;;;;;;;24.26;74.38;97211.09;622026;228;65298;-63
2022/08/10 11:26:54;;;;;;;;;;;;;;;24.26;74.37;97205.72;621347;228;62592;-64
2022/08/10 11:29:29;;;;;;;;;;;;;;;24.26;74.41;97203.04;621685;227;67114;-65
2022/08/10 11:31:58;;;;;;;;;;;;;;;24.25;74.34;97202.21;622009;227;67026;-65
2022/08/10 11:34:44;;;;;;;;;;;;;;;24.28;69.99;97193.61;622219;228;65071;-65
2022/08/10 11:37:28;;;;;;;;;;;;;;;24.31;73.27;97194.92;622127;228;67101;-65
2022/08/10 11:39:57;;;;;;;;;;;;;;;24.29;74.18;97187.14;622068;228;64875;-64
2022/08/10 11:42:45;;;;;;;;;;;;;;;24.29;75.06;97187.14;622073;228;62880;-67
2022/08/10 11:45:30;;;;;;;;;;;;;;;24.29;75.60;97189.82;622075;228;67663;-64
2022/08/10 11:48:08;;;;;;;;;;;;;;;24.29;75.90;97178.29;621593;228;64979;-63
2022/08/10 11:50:43;;;;;;;;;;;;;;;24.29;76.13;97175.60;621941;227;67271;-65
2022/08/10 11:53:16;;;;;;;;;;;;;;;24.29;76.49;97170.23;621588;228;67358;-69
2022/08/10 11:55:48;;;;;;;;;;;;;;;24.28;76.77;97174.81;622134;228;65023;-67
2022/08/10 12:01:06;;;;;;;;;;;;;;;24.28;76.84;97176.67;621971;228;65667;-69
2022/08/10 12:03:35;;;;;;;;;;;;;;;24.28;76.81;97163.24;622154;228;65869;-68
2022/08/10 12:06:04;;;;;;;;;;;;;;;24.27;76.66;97158.97;622119;228;65194;-68
2022/08/10 12:08:32;;;;;;;;;;;;;;;24.27;76.21;97157.08;622092;228;67051;-68
2022/08/10 12:11:01;;;;;;;;;;;;;;;24.24;76.06;97151.49;622152;228;67298;-67
2022/08/10 12:13:33;;;;;;;;;;;;;;;24.27;75.93;97150.91;622086;228;62718;-65
2022/08/10 12:16:02;;;;;;;;;;;;;;;24.27;75.78;97142.86;621876;226;67071;-65
2022/08/10 12:18:30;;;;;;;;;;;;;;;24.27;75.73;97140.96;622105;228;66746;-65
2022/08/10 12:20:59;;;;;;;;;;;;;;;24.28;75.68;97136.39;622037;228;64952;-67
2022/08/10 12:23:34;;;;;;;;;;;;;;;24.27;75.66;97140.96;622183;228;67034;-67
2022/08/10 12:26:06;;;;;;;;;;;;;;;24.27;75.56;97138.28;622017;228;66965;-66
2022/08/10 12:28:50;;;;;;;;;;;;;;;24.28;75.45;97136.39;622115;227;62163;-66
2022/08/10 12:31:20;;;;;;;;;;;;;;;24.28;75.45;97139.07;622118;228;64596;-67
2022/08/10 12:33:49;;;;;;;;;;;;;;;24.27;75.43;97132.91;621471;227;66374;-66
2022/08/10 12:36:21;;;;;;;;;;;;;;;24.28;75.43;97131.02;621416;228;64886;-65
2022/08/10 12:38:50;;;;;;;;;;;;;;;24.27;75.35;97126.74;622149;228;64396;-66
2022/08/10 12:41:22;;;;;;;;;;;;;;;24.28;75.32;97133.70;621975;227;67115;-66
2022/08/10 12:43:51;;;;;;;;;;;;;;;24.28;75.23;97125.64;622017;228;65678;-67
2022/08/10 12:46:20;;;;;;;;;;;;;;;24.27;75.19;97124.06;622081;228;66744;-67
2022/08/10 12:48:58;;;;;;;;;;;;;;;24.27;75.16;97119.48;621975;227;66798;-66
2022/08/10 12:51:30;;;;;;;;;;;;;;;24.27;75.18;97118.69;621971;228;64927;-66
2022/08/10 12:54:08;;;;;;;;;;;;;;;24.27;75.13;97119.48;622064;228;66848;-66
2022/08/10 12:56:53;;;;;;;;;;;;;;;24.28;75.10;97122.95;621900;228;67825;-67
2022/08/10 12:59:23;;;;;;;;;;;;;;;24.28;75.06;97120.27;622030;227;62987;-68
2022/08/10 13:01:54;;;;;;;;;;;;;;;24.28;74.98;97114.91;621998;227;65393;-67
2022/08/10 13:04:34;;;;;;;;;;;;;;;24.27;74.99;97114.11;622078;228;66958;-67
2022/08/10 13:07:02;;;;;;;;;;;;;;;24.26;74.98;97109.84;622091;228;62660;-66
2022/08/10 13:09:32;;;;;;;;;;;;;;;24.27;75.05;97110.63;621461;228;67431;-69